RKTN

Daegu

Airport
ICAO code
RKTN
Summary
ICAO Region
APAC
ICAO Territory
Location

Daegu,

Coordinates
35° 53' 49" N , 128° 39' 19" E
KCC
Metar
RKTN 180100Z 31011KT CAVOK 30/13 Q1006

Description

Daegu Airport is primarily a domestic airport in the city of Daegu, South Korea.

Climatology

Humid Sub-tropical climate (Köppen climate classification Cwa) - Hot humid summers and cooler winter. Significant precipitation in all seasons but drier in the winter.

Runways

Designator Length Width Surface Rops
13L/31R 2743 46 CON Yes/Yes
13R/31L 2755 46 CON Yes/Yes

Airport map

Aerial View

Airport accidents

SKYbrary Partners:

Safety knowledge contributed by: